sensor_id;sensor_type;location;lat;lon;timestamp;pressure;altitude;pressure_sealevel;temperature;humidity
71903;BME280;59778;50.310;18.780;2023-08-07T00:14:09;51234.44;;;-142.93;90.35
71903;BME280;59778;50.310;18.780;2023-08-07T00:29:30;51232.38;;;-142.93;89.55
71903;BME280;59778;50.310;18.780;2023-08-07T00:44:51;51248.88;;;-142.93;88.80
71903;BME280;59778;50.310;18.780;2023-08-07T01:00:14;51250.94;;;-142.93;87.71
71903;BME280;59778;50.310;18.780;2023-08-07T01:15:37;51215.84;;;-142.93;87.57
71903;BME280;59778;50.310;18.780;2023-08-07T01:31:03;51213.78;;;-142.93;88.11
71903;BME280;59778;50.310;18.780;2023-08-07T01:46:26;51242.69;;;-142.93;89.31
71903;BME280;59778;50.310;18.780;2023-08-07T02:01:47;51250.94;;;-142.93;89.06
71903;BME280;59778;50.310;18.780;2023-08-07T02:17:08;51246.81;;;-142.93;89.95
71903;BME280;59778;50.310;18.780;2023-08-07T02:32:29;51213.78;;;-142.93;91.10
71903;BME280;59778;50.310;18.780;2023-08-07T02:47:51;51255.09;;;-142.93;91.79
71903;BME280;59778;50.310;18.780;2023-08-07T03:03:12;51253.03;;;-142.93;91.44
71903;BME280;59778;50.310;18.780;2023-08-07T03:18:33;51226.16;;;-142.93;91.84
71903;BME280;59778;50.310;18.780;2023-08-07T03:33:54;51253.03;;;-142.93;93.58
71903;BME280;59778;50.310;18.780;2023-08-07T03:49:16;51224.09;;;-142.93;94.78
71903;BME280;59778;50.310;18.780;2023-08-07T04:04:37;51253.03;;;-142.93;96.24
71903;BME280;59778;50.310;18.780;2023-08-07T04:19:59;51248.88;;;-142.93;96.08
71903;BME280;59778;50.310;18.780;2023-08-07T04:35:20;51261.28;;;-142.93;96.63
71903;BME280;59778;50.310;18.780;2023-08-07T04:50:41;51255.09;;;-142.93;95.69
71903;BME280;59778;50.310;18.780;2023-08-07T05:06:02;51226.16;;;-142.93;94.73
71903;BME280;59778;50.310;18.780;2023-08-07T05:21:23;51236.50;;;-142.93;94.54
71903;BME280;59778;50.310;18.780;2023-08-07T05:36:44;51228.22;;;-142.93;92.03
71903;BME280;59778;50.310;18.780;2023-08-07T05:52:07;51234.44;;;-142.93;91.00
71903;BME280;59778;50.310;18.780;2023-08-07T06:07:32;51240.63;;;-142.93;91.60
71903;BME280;59778;50.310;18.780;2023-08-07T06:22:53;51207.56;;;-142.93;91.99
71903;BME280;59778;50.310;18.780;2023-08-07T06:38:15;51242.69;;;-142.93;91.65
71903;BME280;59778;50.310;18.780;2023-08-07T06:53:36;51213.78;;;-142.93;91.38
71903;BME280;59778;50.310;18.780;2023-08-07T07:08:57;51238.56;;;-142.93;91.46
71903;BME280;59778;50.310;18.780;2023-08-07T07:24:19;51180.72;;;-142.93;91.07
71903;BME280;59778;50.310;18.780;2023-08-07T07:39:41;51242.69;;;-142.93;92.36
71903;BME280;59778;50.310;18.780;2023-08-07T07:55:03;51238.56;;;-142.93;92.17
71903;BME280;59778;50.310;18.780;2023-08-07T08:10:24;51226.16;;;-142.93;91.85
71903;BME280;59778;50.310;18.780;2023-08-07T08:25:48;51217.91;;;-142.93;92.13
71903;BME280;59778;50.310;18.780;2023-08-07T08:41:09;51213.78;;;-142.93;91.16
71903;BME280;59778;50.310;18.780;2023-08-07T08:56:31;51219.97;;;-142.93;91.05
71903;BME280;59778;50.310;18.780;2023-08-07T09:11:53;51211.72;;;-142.93;90.50
71903;BME280;59778;50.310;18.780;2023-08-07T09:27:15;51219.97;;;-142.93;89.50
71903;BME280;59778;50.310;18.780;2023-08-07T09:42:36;51242.69;;;-142.93;88.49
71903;BME280;59778;50.310;18.780;2023-08-07T09:58:00;51246.81;;;-142.93;90.30
71903;BME280;59778;50.310;18.780;2023-08-07T10:13:22;51215.84;;;-142.93;86.18
71903;BME280;59778;50.310;18.780;2023-08-07T10:28:45;51230.28;;;-142.93;89.39
71903;BME280;59778;50.310;18.780;2023-08-07T10:44:19;51228.22;;;-142.93;90.01
71903;BME280;59778;50.310;18.780;2023-08-07T11:00:05;51228.22;;;-142.93;89.06
71903;BME280;59778;50.310;18.780;2023-08-07T11:15:34;51186.94;;;-142.93;86.53
71903;BME280;59778;50.310;18.780;2023-08-07T11:30:57;51219.97;;;-142.93;88.05
71903;BME280;59778;50.310;18.780;2023-08-07T11:46:18;51240.63;;;-142.93;86.18
71903;BME280;59778;50.310;18.780;2023-08-07T12:01:39;51228.22;;;-142.93;85.04
71903;BME280;59778;50.310;18.780;2023-08-07T12:17:02;51228.22;;;-142.93;84.24
71903;BME280;59778;50.310;18.780;2023-08-07T14:38:46;51232.38;;;-142.93;77.25
71903;BME280;59778;50.310;18.780;2023-08-07T14:54:08;51230.28;;;-142.93;80.29
71903;BME280;59778;50.310;18.780;2023-08-07T15:09:29;51205.50;;;-142.93;84.45
71903;BME280;59778;50.310;18.780;2023-08-07T15:24:50;51213.78;;;-142.93;82.52
71903;BME280;59778;50.310;18.780;2023-08-07T15:40:11;51207.56;;;-142.93;77.59
71903;BME280;59778;50.310;18.780;2023-08-07T15:55:32;51135.28;;;-142.93;74.71
71903;BME280;59778;50.310;18.780;2023-08-07T16:10:56;51174.53;;;-142.93;71.73
71903;BME280;59778;50.310;18.780;2023-08-07T16:26:18;51217.91;;;-142.93;75.36
71903;BME280;59778;50.310;18.780;2023-08-07T16:41:39;51228.22;;;-142.93;77.79
71903;BME280;59778;50.310;18.780;2023-08-07T16:57:06;51226.16;;;-142.93;76.89
71903;BME280;59778;50.310;18.780;2023-08-07T17:12:27;51217.91;;;-142.93;79.20
71903;BME280;59778;50.310;18.780;2023-08-07T17:27:48;51224.09;;;-142.93;80.90
71903;BME280;59778;50.310;18.780;2023-08-07T17:43:10;51211.72;;;-142.93;84.13
71903;BME280;59778;50.310;18.780;2023-08-07T17:58:31;51261.28;;;-142.93;84.98
71903;BME280;59778;50.310;18.780;2023-08-07T18:13:52;51250.94;;;-142.93;83.68
71903;BME280;59778;50.310;18.780;2023-08-07T18:29:13;51240.63;;;-142.93;83.17
71903;BME280;59778;50.310;18.780;2023-08-07T18:44:35;51242.69;;;-142.93;84.12
71903;BME280;59778;50.310;18.780;2023-08-07T18:59:56;51246.81;;;-142.93;83.74
71903;BME280;59778;50.310;18.780;2023-08-07T19:15:18;51226.16;;;-142.93;83.50
71903;BME280;59778;50.310;18.780;2023-08-07T19:30:40;51228.22;;;-142.93;83.37
71903;BME280;59778;50.310;18.780;2023-08-07T19:46:02;51222.03;;;-142.93;82.95
71903;BME280;59778;50.310;18.780;2023-08-07T20:01:25;51217.91;;;-142.93;82.79
71903;BME280;59778;50.310;18.780;2023-08-07T20:16:48;51248.88;;;-142.93;82.73
71903;BME280;59778;50.310;18.780;2023-08-07T20:32:10;51211.72;;;-142.93;82.72
71903;BME280;59778;50.310;18.780;2023-08-07T20:47:31;51230.28;;;-142.93;82.48
71903;BME280;59778;50.310;18.780;2023-08-07T21:02:52;51226.16;;;-142.93;83.08
71903;BME280;59778;50.310;18.780;2023-08-07T21:18:13;51246.81;;;-142.93;82.49
71903;BME280;59778;50.310;18.780;2023-08-07T21:33:35;51209.66;;;-142.93;82.08
71903;BME280;59778;50.310;18.780;2023-08-07T21:48:56;51244.75;;;-142.93;82.10
71903;BME280;59778;50.310;18.780;2023-08-07T22:04:17;51248.88;;;-142.93;82.78
71903;BME280;59778;50.310;18.780;2023-08-07T22:19:38;51242.69;;;-142.93;84.26
71903;BME280;59778;50.310;18.780;2023-08-07T22:35:00;51211.72;;;-142.93;83.88
71903;BME280;59778;50.310;18.780;2023-08-07T22:50:21;51271.59;;;-142.93;83.25
71903;BME280;59778;50.310;18.780;2023-08-07T23:05:42;51217.91;;;-142.93;83.23
71903;BME280;59778;50.310;18.780;2023-08-07T23:21:04;51230.28;;;-142.93;83.22
71903;BME280;59778;50.310;18.780;2023-08-07T23:36:25;51253.03;;;-142.93;82.99
71903;BME280;59778;50.310;18.780;2023-08-07T23:51:46;51228.22;;;-142.93;82.21
